createdAt,value
2017-09-17T00:00:13.443Z,63.07
2017-09-17T00:01:13.462Z,63.16
2017-09-17T00:02:13.803Z,62.68
2017-09-17T00:03:13.821Z,62.59
2017-09-17T00:04:13.720Z,62.78
2017-09-17T00:05:13.536Z,62.87
2017-09-17T00:06:13.883Z,62.78
2017-09-17T00:07:13.895Z,62.97
2017-09-17T00:08:13.599Z,63.07
2017-09-17T00:09:13.609Z,62.87
2017-09-17T00:10:13.949Z,62.78
2017-09-17T00:11:13.645Z,62.78
2017-09-17T00:12:13.664Z,62.87
2017-09-17T00:13:13.688Z,62.97
2017-09-17T00:14:14.118Z,62.87
2017-09-17T00:15:14.120Z,62.87
2017-09-17T00:16:13.740Z,62.97
2017-09-17T00:17:14.077Z,63.07
2017-09-17T00:18:14.123Z,62.97
2017-09-17T00:19:13.792Z,62.97
2017-09-17T00:20:13.821Z,62.97
2017-09-17T00:21:14.252Z,62.97
2017-09-17T00:22:13.849Z,62.97
2017-09-17T00:23:14.287Z,63.35
2017-09-17T00:24:14.285Z,62.97
2017-09-17T00:25:13.901Z,63.35
2017-09-17T00:26:14.240Z,63.35
2017-09-17T00:27:13.937Z,63.07
2017-09-17T00:28:14.371Z,63.07
2017-09-17T00:29:14.390Z,63.26
2017-09-17T00:30:14.316Z,63.32
2017-09-17T00:31:14.334Z,62.84
2017-09-17T00:32:14.349Z,63.13
2017-09-17T00:33:14.049Z,63.13
2017-09-17T00:34:14.387Z,63.42
2017-09-17T00:35:14.408Z,63.42
2017-09-17T00:36:14.728Z,63.32
2017-09-17T00:37:14.269Z,63.51
2017-09-17T00:38:14.584Z,63.51
2017-09-17T00:39:14.583Z,63.23
2017-09-17T00:40:14.269Z,63.23
2017-09-17T00:41:14.416Z,63.32
2017-09-17T00:42:14.737Z,63.51
2017-09-17T00:43:14.727Z,63.42
2017-09-17T00:44:14.246Z,63.23
2017-09-17T00:45:14.727Z,63.23
2017-09-17T00:46:14.728Z,63.23
2017-09-17T00:47:14.419Z,63.99
2017-09-17T00:48:14.416Z,63.51
2017-09-17T00:49:14.787Z,63.8
2017-09-17T00:50:14.448Z,63.42
2017-09-17T00:51:14.813Z,63.89
2017-09-17T00:52:14.472Z,63.89
2017-09-17T00:53:14.482Z,63.8
2017-09-17T00:54:14.803Z,63.99
2017-09-17T00:55:14.772Z,63.99
2017-09-17T00:56:14.789Z,63.99
2017-09-17T00:57:14.804Z,63.89
2017-09-17T00:58:14.827Z,63.89
2017-09-17T00:59:14.847Z,63.7
2017-09-17T01:00:14.864Z,63.6
2017-09-17T01:01:14.561Z,63.7
2017-09-17T01:02:14.898Z,63.6
2017-09-17T01:03:14.593Z,63.32
2017-09-17T01:04:14.615Z,63.51
2017-09-17T01:05:14.948Z,63.51
2017-09-17T01:06:14.971Z,63.23
2017-09-17T01:07:14.984Z,63.6
2017-09-17T01:08:14.687Z,63.6
2017-09-17T01:09:15.026Z,63.6
2017-09-17T01:10:15.040Z,63.8
2017-09-17T01:11:15.059Z,63.8
2017-09-17T01:12:15.080Z,63.99
2017-09-17T01:13:14.781Z,64.18
2017-09-17T01:14:14.795Z,63.96
2017-09-17T01:15:14.816Z,63.42
2017-09-17T01:16:15.154Z,63.86
2017-09-17T01:17:15.166Z,63.57
2017-09-17T01:18:14.867Z,63.96
2017-09-17T01:19:15.203Z,63.96
2017-09-17T01:20:14.905Z,63.99
2017-09-17T01:21:14.920Z,63.99
2017-09-17T01:22:15.257Z,63.86
2017-09-17T01:23:15.280Z,63.67
2017-09-17T01:24:15.289Z,63.76
2017-09-17T01:25:14.985Z,63.67
2017-09-17T01:26:15.009Z,64.05
2017-09-17T01:27:15.346Z,63.67
2017-09-17T01:28:15.363Z,64.15
2017-09-17T01:29:15.073Z,63.57
2017-09-17T01:30:15.077Z,63.86
2017-09-17T01:31:15.097Z,63.96
2017-09-17T01:32:15.443Z,63.86
2017-09-17T01:33:15.459Z,63.96
2017-09-17T01:34:15.475Z,64.34
2017-09-17T01:35:15.492Z,63.96
2017-09-17T01:36:15.511Z,63.96
2017-09-17T01:37:15.203Z,64.05
2017-09-17T01:38:15.539Z,63.96
2017-09-17T01:39:15.561Z,63.96
2017-09-17T01:40:15.576Z,64.05
2017-09-17T01:41:15.600Z,64.34
2017-09-17T01:42:15.617Z,64.34
2017-09-17T01:43:15.309Z,64.05
2017-09-17T01:44:15.329Z,64.25
2017-09-17T01:45:15.350Z,64.15
2017-09-17T01:46:15.365Z,64.34
2017-09-17T01:47:15.709Z,64.34
2017-09-17T01:48:15.719Z,64.25
2017-09-17T01:49:15.745Z,64.25
2017-09-17T01:50:15.760Z,64.25
2017-09-17T01:51:15.448Z,64.05
2017-09-17T01:52:15.797Z,64.05
2017-09-17T01:53:15.483Z,64.34
2017-09-17T01:54:15.829Z,63.76
2017-09-17T01:55:15.849Z,64.43
2017-09-17T01:56:15.859Z,64.43
2017-09-17T01:57:15.891Z,64.05
2017-09-17T01:58:15.903Z,64.05
2017-09-17T01:59:15.919Z,64.53
2017-09-17T02:00:15.935Z,64.81
2017-09-17T02:01:15.631Z,64.62
2017-09-17T02:02:15.964Z,64.72
2017-09-17T02:03:15.984Z,64.62
2017-09-17T02:04:16.002Z,64.72
2017-09-17T02:05:16.019Z,64.34
2017-09-17T02:06:16.044Z,64.25
2017-09-17T02:07:15.735Z,64.34
2017-09-17T02:08:16.123Z,64.15
2017-09-17T02:09:16.094Z,64.43
2017-09-17T02:10:16.110Z,64.53
2017-09-17T02:11:16.132Z,64.4
2017-09-17T02:12:15.821Z,64.25
2017-09-17T02:13:16.162Z,64.43
2017-09-17T02:14:15.854Z,64.43
2017-09-17T02:15:16.291Z,64.05
2017-09-17T02:16:15.892Z,64.05
2017-09-17T02:17:16.231Z,64.15
2017-09-17T02:18:15.931Z,64.12
2017-09-17T02:19:15.943Z,64.88
2017-09-17T02:20:15.996Z,64.69
2017-09-17T02:21:16.306Z,64.59
2017-09-17T02:22:16.318Z,64.59
2017-09-17T02:23:16.342Z,64.69
2017-09-17T02:24:16.028Z,64.78
2017-09-17T02:25:16.369Z,64.78
2017-09-17T02:26:16.394Z,64.59
2017-09-17T02:27:16.411Z,64.97
2017-09-17T02:28:16.430Z,64.5
2017-09-17T02:29:16.439Z,64.59
2017-09-17T02:30:16.136Z,64.69
2017-09-17T02:31:16.479Z,64.69
2017-09-17T02:32:16.562Z,64.78
2017-09-17T02:33:16.512Z,64.88
2017-09-17T02:34:16.210Z,64.5
2017-09-17T02:35:16.223Z,64.78
2017-09-17T02:36:16.243Z,64.78
2017-09-17T02:37:16.263Z,64.5
2017-09-17T02:38:16.601Z,64.5
2017-09-17T02:39:16.644Z,64.5
2017-09-17T02:40:16.310Z,64.97
2017-09-17T02:41:16.649Z,65.07
2017-09-17T02:42:16.666Z,64.78
2017-09-17T02:43:16.692Z,64.59
2017-09-17T02:44:16.702Z,65.17
2017-09-17T02:45:16.730Z,64.88
2017-09-17T02:46:16.737Z,65.26
2017-09-17T02:47:16.431Z,65.07
2017-09-17T02:48:16.772Z,64.78
2017-09-17T02:49:16.792Z,64.69
2017-09-17T02:50:16.806Z,65.64
2017-09-17T02:51:16.829Z,65.45
2017-09-17T02:52:16.525Z,64.5
2017-09-17T02:53:16.881Z,65.64
2017-09-17T02:54:16.872Z,64.78
2017-09-17T02:55:16.570Z,65.55
2017-09-17T02:56:16.910Z,64.88
2017-09-17T02:57:16.604Z,65.07
2017-09-17T02:58:16.950Z,65.45
2017-09-17T02:59:16.966Z,65.26
2017-09-17T03:00:16.985Z,65.07
2017-09-17T03:01:16.679Z,65.07
2017-09-17T03:02:17.014Z,65.36
2017-09-17T03:03:17.030Z,65.26
2017-09-17T03:04:17.051Z,65.36
2017-09-17T03:05:17.072Z,64.69
2017-09-17T03:06:17.083Z,65.07
2017-09-17T03:07:16.779Z,64.69
2017-09-17T03:08:17.125Z,65.36
2017-09-17T03:09:17.138Z,64.88
2017-09-17T03:10:17.160Z,64.97
2017-09-17T03:11:17.179Z,65.26
2017-09-17T03:12:16.870Z,65.26
2017-09-17T03:13:16.886Z,65.17
2017-09-17T03:14:17.238Z,64.88
2017-09-17T03:15:16.916Z,65.07
2017-09-17T03:16:17.255Z,65.13
2017-09-17T03:17:17.273Z,65.17
2017-09-17T03:18:17.291Z,65.64
2017-09-17T03:19:17.311Z,65.07
2017-09-17T03:20:17.328Z,65.64
2017-09-17T03:21:17.343Z,65.74
2017-09-17T03:22:17.366Z,65.74
2017-09-17T03:23:17.381Z,65.93
2017-09-17T03:24:17.400Z,65.93
2017-09-17T03:25:17.408Z,65.07
2017-09-17T03:26:17.105Z,65.7
2017-09-17T03:27:17.122Z,65.55
2017-09-17T03:28:17.140Z,65.17
2017-09-17T03:29:17.479Z,65.33
2017-09-17T03:30:17.529Z,65.23
2017-09-17T03:31:17.527Z,65.33
2017-09-17T03:32:17.531Z,65.55
2017-09-17T03:33:17.550Z,65.8
2017-09-17T03:34:17.573Z,65.52
2017-09-17T03:35:17.608Z,65.42
2017-09-17T03:36:17.601Z,65.52
2017-09-17T03:37:17.294Z,65.23
2017-09-17T03:38:17.629Z,65.52
2017-09-17T03:39:17.655Z,65.52
2017-09-17T03:40:17.682Z,65.52
2017-09-17T03:41:17.684Z,65.61
2017-09-17T03:42:17.735Z,65.42
2017-09-17T03:43:17.720Z,65.89
2017-09-17T03:44:17.413Z,66.09
2017-09-17T03:45:17.750Z,66.18
2017-09-17T03:46:17.774Z,65.7
2017-09-17T03:47:17.790Z,65.99
2017-09-17T03:48:17.807Z,65.8
2017-09-17T03:49:17.821Z,65.8
2017-09-17T03:50:17.848Z,65.8
2017-09-17T03:51:17.866Z,65.89
2017-09-17T03:52:17.876Z,65.89
2017-09-17T03:53:17.577Z,65.8
2017-09-17T03:54:17.586Z,65.89
2017-09-17T03:55:17.605Z,65.99
2017-09-17T03:56:17.618Z,65.8
2017-09-17T03:57:17.979Z,65.8
2017-09-17T03:58:17.658Z,65.61
2017-09-17T03:59:17.987Z,65.61
2017-09-17T04:00:18.009Z,65.89
2017-09-17T04:01:18.026Z,65.61
2017-09-17T04:02:18.049Z,65.61
2017-09-17T04:03:18.063Z,65.7
2017-09-17T04:04:18.076Z,65.7
2017-09-17T04:05:18.095Z,65.7
2017-09-17T04:06:18.116Z,65.52
2017-09-17T04:07:18.131Z,65.61
2017-09-17T04:08:18.140Z,65.8
2017-09-17T04:09:17.841Z,65.8
2017-09-17T04:10:18.179Z,65.8
2017-09-17T04:11:18.196Z,65.42
2017-09-17T04:12:18.215Z,65.7
2017-09-17T04:13:17.906Z,65.89
2017-09-17T04:14:17.921Z,65.89
2017-09-17T04:15:18.265Z,65.52
2017-09-17T04:16:17.957Z,66.09
2017-09-17T04:17:18.297Z,66.09
2017-09-17T04:18:18.322Z,65.8
2017-09-17T04:19:18.007Z,66.09
2017-09-17T04:20:18.027Z,66.09
2017-09-17T04:21:18.042Z,66.18
2017-09-17T04:22:18.382Z,65.89
2017-09-17T04:23:18.403Z,65.89
2017-09-17T04:24:18.092Z,65.7
2017-09-17T04:25:18.433Z,65.7
2017-09-17T04:26:18.452Z,65.7
2017-09-17T04:27:18.468Z,65.8
2017-09-17T04:28:18.484Z,66.18
2017-09-17T04:29:18.493Z,65.89
2017-09-17T04:30:18.514Z,66.18
2017-09-17T04:31:18.207Z,66.18
2017-09-17T04:32:18.574Z,65.89
2017-09-17T04:33:18.242Z,65.99
2017-09-17T04:34:18.587Z,66.09
2017-09-17T04:35:18.279Z,66.38
2017-09-17T04:36:18.298Z,66.09
2017-09-17T04:37:18.314Z,66.09
2017-09-17T04:38:18.655Z,66.18
2017-09-17T04:39:18.390Z,66.56
2017-09-17T04:40:18.686Z,66.56
2017-09-17T04:41:18.720Z,66.28
2017-09-17T04:42:18.394Z,66.38
2017-09-17T04:43:18.737Z,66.18
2017-09-17T04:44:18.752Z,66.18
2017-09-17T04:45:18.765Z,66.28
2017-09-17T04:46:18.785Z,66.18
2017-09-17T04:47:18.805Z,66.05
2017-09-17T04:48:18.823Z,66.15
2017-09-17T04:49:18.835Z,65.89
2017-09-17T04:50:18.852Z,66.44
2017-09-17T04:51:18.541Z,66.56
2017-09-17T04:52:18.563Z,66.28
2017-09-17T04:53:18.902Z,66.75
2017-09-17T04:54:18.922Z,66.85
2017-09-17T04:55:18.936Z,66.66
2017-09-17T04:56:18.953Z,66.28
2017-09-17T04:57:18.649Z,66.09
2017-09-17T04:58:18.988Z,66.85
2017-09-17T04:59:18.681Z,66.75
2017-09-17T05:00:19.018Z,66.75
2017-09-17T05:01:19.039Z,66.56
2017-09-17T05:02:19.053Z,66.24
2017-09-17T05:03:18.750Z,66.85
2017-09-17T05:04:18.764Z,65.99
2017-09-17T05:05:19.099Z,66.56
2017-09-17T05:06:18.792Z,66.72
2017-09-17T05:07:18.810Z,66.53
2017-09-17T05:08:19.157Z,66.56
2017-09-17T05:09:19.174Z,66.53
2017-09-17T05:10:18.864Z,66.24
2017-09-17T05:11:19.206Z,66.53
2017-09-17T05:12:19.214Z,66.05
2017-09-17T05:13:19.235Z,66.56
2017-09-17T05:14:18.931Z,66.53
2017-09-17T05:15:18.949Z,66.75
2017-09-17T05:16:19.287Z,66.34
2017-09-17T05:17:19.299Z,66.34
2017-09-17T05:18:19.315Z,66.53
2017-09-17T05:19:19.330Z,66.53
2017-09-17T05:20:19.348Z,66.82
2017-09-17T05:21:19.368Z,66.63
2017-09-17T05:22:19.381Z,66.63
2017-09-17T05:23:19.406Z,67
2017-09-17T05:24:19.092Z,66.66
2017-09-17T05:25:19.109Z,66.91
2017-09-17T05:26:19.130Z,67.14
2017-09-17T05:27:19.147Z,66.85
2017-09-17T05:28:19.481Z,67.04
2017-09-17T05:29:19.499Z,66.63
2017-09-17T05:30:19.195Z,66.66
2017-09-17T05:31:19.213Z,67.1
2017-09-17T05:32:19.559Z,66.63
2017-09-17T05:33:19.564Z,66.38
2017-09-17T05:34:19.586Z,66.44
2017-09-17T05:35:19.601Z,66.63
2017-09-17T05:36:19.293Z,66.53
2017-09-17T05:37:19.634Z,66.63
2017-09-17T05:38:19.652Z,66.72
2017-09-17T05:39:19.662Z,66.53
2017-09-17T05:40:19.683Z,66.63
2017-09-17T05:41:19.698Z,66.53
2017-09-17T05:42:19.719Z,66.53
2017-09-17T05:43:19.752Z,66.72
2017-09-17T05:44:19.748Z,66.56
2017-09-17T05:45:19.768Z,66.72
2017-09-17T05:46:19.786Z,66.72
2017-09-17T05:47:19.807Z,66.53
2017-09-17T05:48:19.814Z,66.63
2017-09-17T05:49:19.834Z,66.56
2017-09-17T05:50:19.522Z,66.85
2017-09-17T05:51:19.862Z,66.66
2017-09-17T05:52:19.576Z,66.66
2017-09-17T05:53:19.576Z,66.44
2017-09-17T05:54:19.923Z,66.63
2017-09-17T05:55:19.929Z,66.44
2017-09-17T05:56:19.947Z,66.91
2017-09-17T05:57:19.967Z,66.94
2017-09-17T05:58:19.979Z,66.82
2017-09-17T05:59:20.000Z,66.85
2017-09-17T06:00:20.013Z,66.75
2017-09-17T06:01:20.036Z,66.63
2017-09-17T06:02:20.056Z,66.82
2017-09-17T06:03:19.754Z,66.63
2017-09-17T06:04:19.758Z,66.82
2017-09-17T06:05:19.773Z,66.91
2017-09-17T06:06:19.810Z,67.04
2017-09-17T06:07:19.811Z,66.85
2017-09-17T06:08:20.151Z,66.85
2017-09-17T06:09:19.840Z,66.94
2017-09-17T06:10:19.910Z,67.14
2017-09-17T06:11:20.203Z,67.14
2017-09-17T06:12:20.212Z,66.94
2017-09-17T06:13:20.226Z,67.14
2017-09-17T06:14:19.924Z,67.42
2017-09-17T06:15:19.939Z,66.85
2017-09-17T06:16:19.950Z,67
2017-09-17T06:17:19.971Z,67.04
2017-09-17T06:18:20.307Z,67.33
2017-09-17T06:19:20.331Z,66.85
2017-09-17T06:20:20.346Z,67.04
2017-09-17T06:21:20.037Z,67.23
2017-09-17T06:22:20.378Z,67.42
2017-09-17T06:23:20.072Z,67.23
2017-09-17T06:24:20.089Z,68.18
2017-09-17T06:25:20.430Z,67.04
2017-09-17T06:26:20.444Z,67.23
2017-09-17T06:27:20.135Z,67.23
2017-09-17T06:28:20.155Z,67.14
2017-09-17T06:29:20.172Z,67.52
2017-09-17T06:30:20.239Z,66.94
2017-09-17T06:31:20.203Z,66.94
2017-09-17T06:32:20.547Z,66.94
2017-09-17T06:33:20.555Z,67.14
2017-09-17T06:34:20.250Z,67.23
2017-09-17T06:35:20.596Z,67.04
2017-09-17T06:36:20.289Z,67.23
2017-09-17T06:37:20.627Z,67.23
2017-09-17T06:38:20.315Z,67.52
2017-09-17T06:39:20.658Z,67.17
2017-09-17T06:40:20.681Z,67.27
2017-09-17T06:41:20.374Z,67.23
2017-09-17T06:42:20.706Z,67.27
2017-09-17T06:43:20.401Z,67.07
2017-09-17T06:44:20.741Z,67.55
2017-09-17T06:45:20.766Z,67.55
2017-09-17T06:46:20.780Z,67.55
2017-09-17T06:47:20.797Z,67.74
2017-09-17T06:48:20.485Z,67.46
2017-09-17T06:49:20.831Z,67.27
2017-09-17T06:50:20.518Z,67.83
2017-09-17T06:51:20.858Z,67.93
2017-09-17T06:52:20.882Z,67.83
2017-09-17T06:53:20.571Z,67.55
2017-09-17T06:54:20.902Z,67.58
2017-09-17T06:55:20.926Z,68.44
2017-09-17T06:56:20.622Z,67.58
2017-09-17T06:57:20.962Z,67.68
2017-09-17T06:58:20.970Z,68.16
2017-09-17T06:59:20.670Z,67.58
2017-09-17T07:00:21.012Z,67.68
2017-09-17T07:01:21.029Z,68.73
2017-09-17T07:02:20.723Z,68.35
2017-09-17T07:03:21.053Z,68.44
2017-09-17T07:04:21.070Z,67.58
2017-09-17T07:05:21.104Z,67.58
2017-09-17T07:06:21.108Z,67.58
2017-09-17T07:07:21.130Z,68.57
2017-09-17T07:08:21.140Z,67.91
2017-09-17T07:09:21.159Z,68.48
2017-09-17T07:10:21.175Z,67.71
2017-09-17T07:11:21.199Z,68.57
2017-09-17T07:12:21.213Z,67.71
2017-09-17T07:13:21.234Z,67.71
2017-09-17T07:14:20.918Z,68.67
2017-09-17T07:15:21.260Z,67.62
2017-09-17T07:16:20.975Z,68.61
2017-09-17T07:17:20.973Z,67.94
2017-09-17T07:18:20.992Z,67.75
2017-09-17T07:19:21.335Z,67.94
2017-09-17T07:20:21.351Z,67.75
2017-09-17T07:21:21.043Z,67.84
2017-09-17T07:22:21.379Z,67.84
2017-09-17T07:23:21.401Z,67.75
2017-09-17T07:24:21.093Z,67.75
2017-09-17T07:25:21.436Z,67.55
2017-09-17T07:26:21.467Z,68.23
2017-09-17T07:27:21.145Z,67.94
2017-09-17T07:28:21.602Z,67.36
2017-09-17T07:29:21.602Z,67.59
2017-09-17T07:30:21.520Z,67.3
2017-09-17T07:31:21.545Z,67.4
2017-09-17T07:32:21.231Z,67.49
2017-09-17T07:33:21.569Z,67.21
2017-09-17T07:34:21.265Z,67.21
2017-09-17T07:35:21.605Z,67.21
2017-09-17T07:36:21.626Z,67.49
2017-09-17T07:37:21.646Z,66.92
2017-09-17T07:38:21.663Z,67.21
2017-09-17T07:39:21.680Z,66.83
2017-09-17T07:40:21.690Z,67.59
2017-09-17T07:41:21.390Z,66.73
2017-09-17T07:42:21.739Z,67.59
2017-09-17T07:43:21.749Z,67.21
2017-09-17T07:44:21.441Z,67.49
2017-09-17T07:45:21.464Z,67.11
2017-09-17T07:46:21.796Z,67.3
2017-09-17T07:47:21.818Z,66.86
2017-09-17T07:48:21.839Z,67.05
2017-09-17T07:49:21.555Z,67.14
2017-09-17T07:50:21.553Z,67.05
2017-09-17T07:51:21.888Z,67.05
2017-09-17T07:52:21.909Z,66.86
2017-09-17T07:53:21.921Z,66.57
2017-09-17T07:54:21.944Z,66.67
2017-09-17T07:55:21.636Z,66.28
2017-09-17T07:56:21.982Z,66.76
2017-09-17T07:57:21.991Z,66.28
2017-09-17T07:58:21.694Z,67.18
2017-09-17T07:59:21.707Z,66.7
2017-09-17T08:00:22.052Z,66.41
2017-09-17T08:01:22.064Z,66.51
2017-09-17T08:02:22.211Z,66.51
2017-09-17T08:03:22.102Z,66.51
2017-09-17T08:04:22.122Z,66.22
2017-09-17T08:05:21.817Z,66.13
2017-09-17T08:06:21.836Z,65.94
2017-09-17T08:07:22.176Z,65.74
2017-09-17T08:08:21.872Z,65.78
2017-09-17T08:09:22.214Z,65.97
2017-09-17T08:10:21.909Z,65.68
2017-09-17T08:11:21.924Z,66.06
2017-09-17T08:12:21.940Z,65.88
2017-09-17T08:13:22.291Z,65.88
2017-09-17T08:14:21.975Z,65.78
2017-09-17T08:15:22.328Z,65.88
2017-09-17T08:16:22.017Z,65.81
2017-09-17T08:17:22.355Z,65.91
2017-09-17T08:18:22.053Z,65.91
2017-09-17T08:19:22.066Z,66
2017-09-17T08:20:22.425Z,65.42
2017-09-17T08:21:22.426Z,65.42
2017-09-17T08:22:22.445Z,65.52
2017-09-17T08:23:22.472Z,64.95
2017-09-17T08:24:22.479Z,65.81
2017-09-17T08:25:22.507Z,65.62
2017-09-17T08:26:22.201Z,65.17
2017-09-17T08:27:22.329Z,65.08
2017-09-17T08:28:22.560Z,64.89
2017-09-17T08:29:22.257Z,64.69
2017-09-17T08:30:22.270Z,64.5
2017-09-17T08:31:22.625Z,64.22
2017-09-17T08:32:22.632Z,64.5
2017-09-17T08:33:22.650Z,64.59
2017-09-17T08:34:22.678Z,64.02
2017-09-17T08:35:22.687Z,63.92
2017-09-17T08:36:22.710Z,64.69
2017-09-17T08:37:22.724Z,64.59
2017-09-17T08:38:22.745Z,64.22
2017-09-17T08:39:22.768Z,64.79
2017-09-17T08:40:22.782Z,64.89
2017-09-17T08:41:22.804Z,64.31
2017-09-17T08:42:22.821Z,64.4
2017-09-17T08:43:22.514Z,65.01
2017-09-17T08:44:22.538Z,64.92
2017-09-17T08:45:22.876Z,64.53
2017-09-17T08:46:22.900Z,64.34
2017-09-17T08:47:22.593Z,63.96
2017-09-17T08:48:22.930Z,63.57
2017-09-17T08:49:22.958Z,64.34
2017-09-17T08:50:22.647Z,63.57
2017-09-17T08:51:22.992Z,63.57
2017-09-17T08:52:23.013Z,63.86
2017-09-17T08:53:22.709Z,64.25
2017-09-17T08:54:22.723Z,63.6
2017-09-17T08:55:22.851Z,63.22
2017-09-17T08:56:23.090Z,62.84
2017-09-17T08:57:23.106Z,62.26
2017-09-17T08:58:22.806Z,62.16
2017-09-17T08:59:22.821Z,62.16
2017-09-17T09:00:23.180Z,61.3
2017-09-17T09:01:22.863Z,61.11
2017-09-17T09:02:23.206Z,61.49
2017-09-17T09:03:23.217Z,61.49
2017-09-17T09:04:23.243Z,61.11
2017-09-17T09:05:23.257Z,61.21
2017-09-17T09:06:22.956Z,61.4
2017-09-17T09:07:23.297Z,61.4
2017-09-17T09:08:22.996Z,61.43
2017-09-17T09:09:23.338Z,61.24
2017-09-17T09:10:23.443Z,61.62
2017-09-17T09:11:23.379Z,61.52
2017-09-17T09:12:23.090Z,61.33
2017-09-17T09:13:23.419Z,61.05
2017-09-17T09:14:23.450Z,61.52
2017-09-17T09:15:23.134Z,60.75
2017-09-17T09:16:23.477Z,60.66
2017-09-17T09:17:23.492Z,61.05
2017-09-17T09:18:23.515Z,60.69
2017-09-17T09:19:23.537Z,60.78
2017-09-17T09:20:23.235Z,60.6
2017-09-17T09:21:23.250Z,60.5
2017-09-17T09:22:23.606Z,60.69
2017-09-17T09:23:23.614Z,60.5
2017-09-17T09:24:23.629Z,60.21
2017-09-17T09:25:23.650Z,60.5
2017-09-17T09:26:23.347Z,60.31
2017-09-17T09:27:23.370Z,60.4
2017-09-17T09:28:23.710Z,60.5
2017-09-17T09:29:23.731Z,60.05
2017-09-17T09:30:23.431Z,59.92
2017-09-17T09:31:23.445Z,59.47
2017-09-17T09:32:23.797Z,59.57
2017-09-17T09:33:23.489Z,59.19
2017-09-17T09:34:23.846Z,59.47
2017-09-17T09:35:23.523Z,59.38
2017-09-17T09:36:23.546Z,59.02
2017-09-17T09:37:23.892Z,59.38
2017-09-17T09:38:23.586Z,58.06
2017-09-17T09:39:23.612Z,58.35
2017-09-17T09:40:23.625Z,58.15
2017-09-17T09:41:23.971Z,58.06
2017-09-17T09:42:23.994Z,57.77
2017-09-17T09:43:24.019Z,58.06
2017-09-17T09:44:24.034Z,58.06
2017-09-17T09:45:23.726Z,58.06
2017-09-17T09:46:23.764Z,57.68
2017-09-17T09:47:23.785Z,57.6
2017-09-17T09:48:23.810Z,57.6
2017-09-17T09:49:24.136Z,57.42
2017-09-17T09:50:24.158Z,57.51
2017-09-17T09:51:24.181Z,57.03
2017-09-17T09:52:23.869Z,56.93
2017-09-17T09:53:23.893Z,56.65
2017-09-17T09:54:23.910Z,56.45
2017-09-17T09:55:24.257Z,56.58
2017-09-17T09:56:24.279Z,56.67
2017-09-17T09:57:23.973Z,56.48
2017-09-17T09:58:24.322Z,56.58
2017-09-17T09:59:24.340Z,56.48
2017-09-17T10:00:24.363Z,56.38
2017-09-17T10:01:24.380Z,55.81
2017-09-17T10:02:24.396Z,55.71
2017-09-17T10:03:24.094Z,55.81
2017-09-17T10:04:24.116Z,55.9
2017-09-17T10:05:24.459Z,55.45
2017-09-17T10:06:24.154Z,55.07
2017-09-17T10:07:24.178Z,54.68
2017-09-17T10:08:24.201Z,54.97
2017-09-17T10:09:24.221Z,54.2
2017-09-17T10:10:24.240Z,54.39
2017-09-17T10:11:24.583Z,54.39
2017-09-17T10:12:24.301Z,54.1
2017-09-17T10:13:24.322Z,53.72
2017-09-17T10:14:24.650Z,54.49
2017-09-17T10:15:24.687Z,54.22
2017-09-17T10:16:24.461Z,53.94
2017-09-17T10:17:24.710Z,53.81
2017-09-17T10:18:24.413Z,53.91
2017-09-17T10:19:24.750Z,53.27
2017-09-17T10:20:24.779Z,53.55
2017-09-17T10:21:24.470Z,53.17
2017-09-17T10:22:24.819Z,53.36
2017-09-17T10:23:24.518Z,53.27
2017-09-17T10:24:24.537Z,52.97
2017-09-17T10:25:24.558Z,52.69
2017-09-17T10:26:24.581Z,52.42
2017-09-17T10:27:24.931Z,52.13
2017-09-17T10:28:24.943Z,52.13
2017-09-17T10:29:24.648Z,52.01
2017-09-17T10:30:24.998Z,51.46
2017-09-17T10:31:25.014Z,51.84
2017-09-17T10:32:25.095Z,52.04
2017-09-17T10:33:24.959Z,51.56
2017-09-17T10:34:24.755Z,51.56
2017-09-17T10:35:25.099Z,51.26
2017-09-17T10:36:24.793Z,50.98
2017-09-17T10:37:24.821Z,50.62
2017-09-17T10:38:24.841Z,50.04
2017-09-17T10:39:24.856Z,49.46
2017-09-17T10:40:25.231Z,49.46
2017-09-17T10:41:24.904Z,49.55
2017-09-17T10:42:25.255Z,49.27
2017-09-17T10:43:24.947Z,49.46
2017-09-17T10:44:25.295Z,49.65
2017-09-17T10:45:24.988Z,49.65
2017-09-17T10:46:25.014Z,49.17
2017-09-17T10:47:25.362Z,49.87
2017-09-17T10:48:25.386Z,48.71
2017-09-17T10:49:25.078Z,48.61
2017-09-17T10:50:25.426Z,48.13
2017-09-17T10:51:25.123Z,47.94
2017-09-17T10:52:25.168Z,47.07
2017-09-17T10:53:25.494Z,47.27
2017-09-17T10:54:25.508Z,47.55
2017-09-17T10:55:25.217Z,47.17
2017-09-17T10:56:25.554Z,46.69
2017-09-17T10:57:25.578Z,46.69
2017-09-17T10:58:25.607Z,46.59
2017-09-17T10:59:25.322Z,46.42
2017-09-17T11:00:25.646Z,46.2
2017-09-17T11:01:25.670Z,46.13
2017-09-17T11:02:25.695Z,46.03
2017-09-17T11:03:25.717Z,46.03
2017-09-17T11:04:25.732Z,46.03
2017-09-17T11:05:25.764Z,46.23
2017-09-17T11:06:25.458Z,45.94
2017-09-17T11:07:25.480Z,45.26
2017-09-17T11:08:25.820Z,44.97
2017-09-17T11:09:25.844Z,44.8
2017-09-17T11:10:25.869Z,44.2
2017-09-17T11:11:25.892Z,43.93
2017-09-17T11:12:25.916Z,43.54
2017-09-17T11:13:25.944Z,44.03
2017-09-17T11:14:25.637Z,43.93
2017-09-17T11:15:25.662Z,43.93
2017-09-17T11:16:25.679Z,44.12
2017-09-17T11:17:25.702Z,43.64
2017-09-17T11:18:26.049Z,43.06
2017-09-17T11:19:26.082Z,43.84
2017-09-17T11:20:26.224Z,42.89
2017-09-17T11:21:26.116Z,42.89
2017-09-17T11:22:25.817Z,42.79
2017-09-17T11:23:25.842Z,43.08
2017-09-17T11:24:26.189Z,43.28
2017-09-17T11:25:25.891Z,42.7
2017-09-17T11:26:26.232Z,42.6
2017-09-17T11:27:25.931Z,43.28
2017-09-17T11:28:26.282Z,43.08
2017-09-17T11:29:25.981Z,43.1
2017-09-17T11:30:26.325Z,42.99
2017-09-17T11:31:26.022Z,43.2
2017-09-17T11:32:26.376Z,42.91
2017-09-17T11:33:26.400Z,43.01
2017-09-17T11:34:26.421Z,42.91
2017-09-17T11:35:26.116Z,42.91
2017-09-17T11:36:26.142Z,43.01
2017-09-17T11:37:26.164Z,42.72
2017-09-17T11:38:26.513Z,42.65
2017-09-17T11:39:26.214Z,42.24
2017-09-17T11:40:26.233Z,42.45
2017-09-17T11:41:26.583Z,42.35
2017-09-17T11:42:26.602Z,42.65
2017-09-17T11:43:26.304Z,42.74
2017-09-17T11:44:26.333Z,42.74
2017-09-17T11:45:26.348Z,42.55
2017-09-17T11:46:26.701Z,42.16
2017-09-17T11:47:26.724Z,41.39
2017-09-17T11:48:26.743Z,41.21
2017-09-17T11:49:26.777Z,40.83
2017-09-17T11:50:26.789Z,40.83
2017-09-17T11:51:26.493Z,40.25
2017-09-17T11:52:26.835Z,40.15
2017-09-17T11:53:26.543Z,39.95
2017-09-17T11:54:26.562Z,40.15
2017-09-17T11:55:26.917Z,39.67
2017-09-17T11:56:26.610Z,39.67
2017-09-17T11:57:26.633Z,39.95
2017-09-17T11:58:26.659Z,39.76
2017-09-17T11:59:26.680Z,39.67
2017-09-17T12:00:26.704Z,40.15
2017-09-17T12:01:26.733Z,40.05
2017-09-17T12:02:27.083Z,39.76
2017-09-17T12:03:27.234Z,39.86
2017-09-17T12:04:27.244Z,39.78
2017-09-17T12:05:27.150Z,40.17
2017-09-17T12:06:27.208Z,40.26
2017-09-17T12:07:26.878Z,40.17
2017-09-17T12:08:26.898Z,40.26
2017-09-17T12:09:26.928Z,40.26
2017-09-17T12:10:26.944Z,40.46
2017-09-17T12:11:26.968Z,40.36
2017-09-17T12:12:27.321Z,40.36
2017-09-17T12:13:27.024Z,40.28
2017-09-17T12:14:27.367Z,40.38
2017-09-17T12:15:27.395Z,40.48
2017-09-17T12:16:27.189Z,40.19
2017-09-17T12:17:27.112Z,39.41
2017-09-17T12:18:27.140Z,38.83
2017-09-17T12:19:27.514Z,38.93
2017-09-17T12:20:27.188Z,38.66
2017-09-17T12:21:27.673Z,38.27
2017-09-17T12:22:27.560Z,38.56
2017-09-17T12:23:27.593Z,38.73
2017-09-17T12:24:27.644Z,38.66
2017-09-17T12:25:27.640Z,38.56
2017-09-17T12:26:27.710Z,38.66
2017-09-17T12:27:27.497Z,38.85
2017-09-17T12:28:27.713Z,38.95
2017-09-17T12:29:27.737Z,38.87
2017-09-17T12:30:27.766Z,38.58
2017-09-17T12:31:27.916Z,38.78
2017-09-17T12:32:27.807Z,38.78
2017-09-17T12:33:27.509Z,38.78
2017-09-17T12:34:27.535Z,38.39
2017-09-17T12:35:27.561Z,38.48
2017-09-17T12:36:27.913Z,38
2017-09-17T12:37:27.931Z,37.24
2017-09-17T12:38:27.633Z,38.12
2017-09-17T12:39:27.660Z,37.73
2017-09-17T12:40:27.686Z,37.63
2017-09-17T12:41:28.035Z,37.82
2017-09-17T12:42:28.062Z,37.82
2017-09-17T12:43:28.089Z,37.24
2017-09-17T12:44:28.107Z,37.26
2017-09-17T12:45:27.812Z,37.16
2017-09-17T12:46:28.161Z,37.16
2017-09-17T12:47:28.181Z,36.58
2017-09-17T12:48:28.335Z,37.35
2017-09-17T12:49:27.912Z,36.19
2017-09-17T12:50:27.939Z,37.26
2017-09-17T12:51:27.968Z,37.26
2017-09-17T12:52:28.311Z,36.77
2017-09-17T12:53:28.014Z,36.87
2017-09-17T12:54:28.362Z,36.97
2017-09-17T12:55:28.390Z,36.77